createdAt,value
2022-11-28T00:02:21.113Z,12.37
2022-11-28T00:04:42.748Z,12.17
2022-11-28T00:07:04.548Z,12.40
2022-11-28T00:09:26.206Z,12.13
2022-11-28T00:11:48.872Z,11.63
2022-11-28T00:14:10.810Z,12.70
2022-11-28T00:16:32.378Z,12.13
2022-11-28T00:18:55.068Z,12.27
2022-11-28T00:21:17.135Z,12.07
2022-11-28T00:23:38.700Z,12.07
2022-11-28T00:26:09.166Z,11.33
2022-11-28T00:28:30.612Z,12.33
2022-11-28T00:30:52.164Z,12.07
2022-11-28T00:33:13.607Z,11.07
2022-11-28T00:35:35.089Z,11.23
2022-11-28T00:37:56.538Z,11.93
2022-11-28T00:40:18.121Z,11.03
2022-11-28T00:42:39.585Z,11.40
2022-11-28T00:45:01.004Z,12.60
2022-11-28T00:47:22.474Z,11.80
2022-11-28T00:49:43.922Z,11.80
2022-11-28T00:52:05.443Z,13.40
2022-11-28T00:54:26.923Z,12.30
2022-11-28T00:56:48.395Z,12.77
2022-11-28T00:59:09.871Z,11.83
2022-11-28T01:01:38.212Z,11.90
2022-11-28T01:04:02.251Z,12.47
2022-11-28T01:06:29.643Z,12.33
2022-11-28T01:08:51.658Z,12.60
2022-11-28T01:11:13.933Z,12.17
2022-11-28T01:13:35.393Z,12.07
2022-11-28T01:15:58.714Z,12.23
2022-11-28T01:18:20.230Z,11.80
2022-11-28T01:20:41.752Z,11.77
2022-11-28T01:23:03.453Z,11.57
2022-11-28T01:25:25.295Z,11.87
2022-11-28T01:27:46.757Z,11.77
2022-11-28T01:30:08.475Z,11.47
2022-11-28T01:32:30.143Z,11.73
2022-11-28T01:34:51.692Z,11.60
2022-11-28T01:37:13.159Z,11.93
2022-11-28T01:39:34.607Z,11.97
2022-11-28T01:41:56.133Z,11.53
2022-11-28T01:44:41.222Z,11.57
2022-11-28T01:47:02.879Z,10.87
2022-11-28T01:49:30.254Z,11.10
2022-11-28T01:51:58.169Z,11.53
2022-11-28T01:54:22.535Z,10.23
2022-11-28T01:57:08.219Z,11.07
2022-11-28T01:59:35.721Z,10.83
2022-11-28T02:01:57.252Z,11.27
2022-11-28T02:04:19.072Z,10.43
2022-11-28T02:06:42.155Z,10.77
2022-11-28T02:09:03.989Z,10.90
2022-11-28T02:11:25.447Z,10.80
2022-11-28T02:14:05.742Z,10.40
2022-11-28T02:17:06.239Z,11.17
2022-11-28T02:19:59.538Z,10.90
2022-11-28T02:22:28.899Z,11.07
2022-11-28T02:25:05.369Z,11.27
2022-11-28T02:28:12.031Z,11.00
2022-11-28T02:31:15.082Z,10.87
2022-11-28T02:33:44.915Z,10.73
2022-11-28T02:36:26.363Z,10.80
2022-11-28T02:39:09.221Z,10.37
2022-11-28T02:41:43.224Z,10.67
2022-11-28T02:44:14.807Z,10.33
2022-11-28T02:46:36.280Z,10.67
2022-11-28T02:49:07.152Z,10.80
2022-11-28T02:51:32.311Z,10.37
2022-11-28T02:53:55.737Z,10.57
2022-11-28T02:56:17.691Z,11.00
2022-11-28T02:58:39.275Z,11.10
2022-11-28T03:01:00.838Z,10.87
2022-11-28T03:03:37.493Z,10.90
2022-11-28T03:06:09.640Z,11.07
2022-11-28T03:08:49.888Z,10.40
2022-11-28T03:11:31.401Z,10.27
2022-11-28T03:13:58.917Z,10.70
2022-11-28T03:16:30.669Z,10.43
2022-11-28T03:19:24.201Z,10.93
2022-11-28T03:21:57.210Z,10.60
2022-11-28T03:24:27.925Z,11.50
2022-11-28T03:27:27.851Z,11.10
2022-11-28T03:30:01.498Z,10.17
2022-11-28T03:32:33.556Z,10.97
2022-11-28T03:35:05.189Z,10.83
2022-11-28T03:37:31.637Z,10.13
2022-11-28T03:40:00.774Z,11.03
2022-11-28T03:42:25.282Z,11.17
2022-11-28T03:44:52.608Z,11.30
2022-11-28T03:47:14.076Z,10.10
2022-11-28T03:49:40.562Z,11.10
2022-11-28T03:52:05.565Z,11.30
2022-11-28T03:54:32.145Z,11.37
2022-11-28T03:57:11.699Z,11.23
2022-11-28T03:59:36.977Z,10.73
2022-11-28T04:02:16.972Z,11.10
2022-11-28T04:04:55.047Z,10.47
2022-11-28T04:07:52.399Z,10.90
2022-11-28T04:10:39.183Z,11.90
2022-11-28T04:13:18.050Z,11.10
2022-11-28T04:15:54.547Z,11.03
2022-11-28T04:18:21.226Z,11.37
2022-11-28T04:20:49.690Z,10.83
2022-11-28T04:23:15.228Z,11.70
2022-11-28T04:25:41.505Z,12.07
2022-11-28T04:28:13.104Z,11.40
2022-11-28T04:30:36.886Z,12.70
2022-11-28T04:33:02.663Z,11.30
2022-11-28T04:35:32.460Z,12.07
2022-11-28T04:37:55.615Z,12.20
2022-11-28T04:40:19.186Z,10.93
2022-11-28T04:42:51.424Z,11.17
2022-11-28T04:45:17.926Z,11.90
2022-11-28T04:47:39.862Z,11.13
2022-11-28T04:50:01.508Z,11.73
2022-11-28T04:52:44.442Z,12.03
2022-11-28T04:55:27.963Z,12.50
2022-11-28T04:57:57.332Z,11.83
2022-11-28T05:00:21.521Z,11.50
2022-11-28T05:02:45.897Z,12.00
2022-11-28T05:05:14.071Z,12.67
2022-11-28T05:07:35.617Z,11.43
2022-11-28T05:09:57.706Z,10.90
2022-11-28T05:12:19.253Z,12.17
2022-11-28T05:14:41.061Z,12.50
2022-11-28T05:17:02.719Z,11.83
2022-11-28T05:19:24.219Z,12.43
2022-11-28T05:21:45.752Z,11.70
2022-11-28T05:24:08.211Z,11.90
2022-11-28T05:26:32.273Z,11.13
2022-11-28T05:28:53.994Z,13.50
2022-11-28T05:31:15.787Z,12.50
2022-11-28T05:33:37.377Z,11.90
2022-11-28T05:36:13.221Z,11.87
2022-11-28T05:38:35.478Z,11.53
2022-11-28T05:40:56.899Z,12.20
2022-11-28T05:43:18.347Z,12.87
2022-11-28T05:45:44.230Z,11.60
2022-11-28T05:48:06.154Z,11.90
2022-11-28T05:50:28.330Z,12.43
2022-11-28T05:52:49.788Z,12.30
2022-11-28T05:55:11.233Z,13.03
2022-11-28T05:57:32.745Z,11.90
2022-11-28T05:59:54.181Z,12.40
2022-11-28T06:02:15.735Z,11.37
2022-11-28T06:04:38.124Z,12.33
2022-11-28T06:06:59.606Z,12.43
2022-11-28T06:09:25.657Z,11.47
2022-11-28T06:14:16.349Z,13.30
2022-11-28T06:16:38.038Z,12.73
2022-11-28T06:19:02.013Z,12.10
2022-11-28T06:21:23.685Z,11.57
2022-11-28T06:23:45.126Z,11.10
2022-11-28T06:26:07.464Z,11.77
2022-11-28T06:28:28.929Z,12.03
2022-11-28T06:30:50.410Z,12.03
2022-11-28T06:33:11.871Z,12.50
2022-11-28T06:35:33.503Z,12.80
2022-11-28T06:37:55.006Z,12.57
2022-11-28T06:40:16.662Z,12.63
2022-11-28T06:42:38.240Z,11.80
2022-11-28T06:44:59.715Z,11.10
2022-11-28T06:47:21.186Z,11.63
2022-11-28T06:49:42.904Z,12.13
2022-11-28T06:52:04.714Z,11.77
2022-11-28T06:54:26.170Z,11.47
2022-11-28T06:56:47.609Z,11.90
2022-11-28T06:59:11.983Z,11.33
2022-11-28T07:01:34.359Z,11.40
2022-11-28T07:03:56.128Z,12.20
2022-11-28T07:06:19.715Z,11.67
2022-11-28T07:08:41.889Z,12.97
2022-11-28T07:11:23.871Z,11.70
2022-11-28T07:13:46.133Z,12.20
2022-11-28T07:16:12.348Z,11.23
2022-11-28T07:18:34.337Z,11.30
2022-11-28T07:20:55.778Z,11.67
2022-11-28T07:23:17.252Z,11.43
2022-11-28T07:25:38.734Z,11.53
2022-11-28T07:28:00.516Z,10.57
2022-11-28T07:30:23.183Z,11.90
2022-11-28T07:32:44.618Z,11.47
2022-11-28T07:35:08.191Z,11.53
2022-11-28T07:37:29.642Z,11.27
2022-11-28T07:39:51.066Z,11.20
2022-11-28T07:42:12.573Z,12.43
2022-11-28T07:44:33.990Z,15.07
2022-11-28T07:46:55.473Z,14.83
2022-11-28T07:49:17.001Z,11.47
2022-11-28T07:51:39.138Z,11.23
2022-11-28T07:54:02.067Z,13.43
2022-11-28T07:56:35.012Z,14.33
2022-11-28T07:59:03.387Z,13.63
2022-11-28T08:01:28.160Z,17.47
2022-11-28T08:03:50.653Z,14.53
2022-11-28T08:06:16.651Z,12.23
2022-11-28T08:08:38.218Z,12.63
2022-11-28T08:11:04.811Z,12.37
2022-11-28T08:13:26.374Z,13.93
2022-11-28T08:15:47.822Z,14.57
2022-11-28T08:18:09.851Z,12.37
2022-11-28T08:20:31.364Z,11.80
2022-11-28T08:22:52.805Z,11.13
2022-11-28T08:25:14.305Z,11.67
2022-11-28T08:27:35.776Z,11.50
2022-11-28T08:29:57.195Z,12.37
2022-11-28T08:32:18.773Z,12.90
2022-11-28T08:34:40.208Z,11.60
2022-11-28T08:37:01.684Z,13.17
2022-11-28T08:39:24.872Z,12.17
2022-11-28T08:41:46.722Z,12.87
2022-11-28T08:44:08.163Z,12.80
2022-11-28T08:46:29.713Z,12.97
2022-11-28T08:48:52.647Z,11.27
2022-11-28T08:51:16.095Z,11.87
2022-11-28T08:53:37.532Z,12.33
2022-11-28T08:55:59.955Z,12.27
2022-11-28T08:58:21.485Z,14.77
2022-11-28T09:00:43.130Z,13.10
2022-11-28T09:03:05.289Z,13.13
2022-11-28T09:05:28.825Z,13.47
2022-11-28T09:07:50.284Z,13.77
2022-11-28T09:10:11.747Z,15.13
2022-11-28T09:12:33.183Z,12.20
2022-11-28T09:14:54.615Z,11.70
2022-11-28T09:17:16.147Z,10.80
2022-11-28T09:19:37.670Z,11.17
2022-11-28T09:21:59.186Z,11.17
2022-11-28T09:24:20.632Z,11.43
2022-11-28T09:26:42.582Z,12.10
2022-11-28T09:29:04.108Z,11.30
2022-11-28T09:31:25.812Z,11.93
2022-11-28T09:33:49.444Z,12.23
2022-11-28T09:36:13.560Z,12.07
2022-11-28T09:38:35.976Z,11.67
2022-11-28T09:40:57.660Z,16.77
2022-11-28T09:43:52.043Z,12.33
2022-11-28T09:46:25.131Z,13.87
2022-11-28T09:48:51.503Z,17.73
2022-11-28T09:51:31.337Z,13.23
2022-11-28T09:54:14.052Z,12.30
2022-11-28T09:56:35.672Z,11.93
2022-11-28T09:59:02.823Z,12.07
2022-11-28T10:02:17.725Z,12.43
2022-11-28T10:04:45.247Z,11.97
2022-11-28T10:07:39.283Z,12.43
2022-11-28T10:10:23.507Z,11.23
2022-11-28T10:12:47.835Z,11.40
2022-11-28T10:15:41.776Z,11.90
2022-11-28T10:18:23.449Z,12.40
2022-11-28T10:20:47.327Z,11.63
2022-11-28T10:23:31.018Z,12.27
2022-11-28T10:26:30.590Z,13.03
2022-11-28T10:28:56.079Z,12.93
2022-11-28T10:31:26.694Z,12.53
2022-11-28T10:33:57.873Z,19.33
2022-11-28T10:36:28.509Z,12.53
2022-11-28T10:38:50.079Z,14.27
2022-11-28T10:41:25.217Z,12.10
2022-11-28T10:44:10.462Z,13.37
2022-11-28T10:46:58.177Z,12.07
2022-11-28T10:49:44.705Z,11.90
2022-11-28T10:52:15.254Z,12.00
2022-11-28T10:54:49.661Z,11.83
2022-11-28T10:57:37.125Z,12.43
2022-11-28T11:00:12.189Z,11.73
2022-11-28T11:02:43.394Z,11.33
2022-11-28T11:05:07.006Z,11.87
2022-11-28T11:07:31.355Z,11.80
2022-11-28T11:09:52.999Z,11.83
2022-11-28T11:12:22.173Z,11.73
2022-11-28T11:14:44.775Z,11.83
2022-11-28T11:17:06.632Z,11.93
2022-11-28T11:19:34.227Z,12.07
2022-11-28T11:22:26.079Z,12.73
2022-11-28T11:25:12.305Z,12.27
2022-11-28T11:27:36.720Z,12.03
2022-11-28T11:29:59.045Z,13.50
2022-11-28T11:32:30.684Z,12.60
2022-11-28T11:34:53.556Z,12.40
2022-11-28T11:37:28.855Z,12.70
2022-11-28T11:39:52.158Z,11.53
2022-11-28T11:42:25.422Z,12.57
2022-11-28T11:44:46.921Z,12.37
2022-11-28T11:47:10.339Z,12.33
2022-11-28T11:49:37.554Z,11.90
2022-11-28T11:52:26.465Z,12.97
2022-11-28T11:54:56.922Z,12.93
2022-11-28T11:57:35.390Z,12.13
2022-11-28T12:00:02.455Z,13.03
2022-11-28T12:02:46.009Z,12.97
2022-11-28T12:05:20.499Z,12.47
2022-11-28T12:07:50.303Z,12.10
2022-11-28T12:10:17.672Z,12.10
2022-11-28T12:12:39.311Z,11.77
2022-11-28T12:15:00.758Z,13.47
2022-11-28T12:20:22.870Z,13.27
2022-11-28T12:23:00.208Z,12.93
2022-11-28T12:25:30.316Z,13.03
2022-11-28T12:28:29.420Z,12.17
2022-11-28T12:31:12.696Z,12.13
2022-11-28T12:33:55.167Z,12.27
2022-11-28T12:36:38.403Z,13.97
2022-11-28T12:39:19.644Z,12.60
2022-11-28T12:41:50.248Z,12.90
2022-11-28T12:44:14.565Z,12.60
2022-11-28T12:47:13.736Z,14.63
2022-11-28T12:49:44.185Z,12.90
2022-11-28T12:52:26.912Z,12.60
2022-11-28T12:55:17.601Z,12.90
2022-11-28T12:57:48.047Z,13.17
2022-11-28T13:00:18.359Z,13.33
2022-11-28T13:03:11.578Z,13.37
2022-11-28T13:05:59.136Z,13.83
2022-11-28T13:08:32.413Z,13.23
2022-11-28T13:11:03.270Z,14.90
2022-11-28T13:13:29.806Z,13.70
2022-11-28T13:16:27.640Z,13.70
2022-11-28T13:19:10.285Z,12.53
2022-11-28T13:21:48.528Z,13.40
2022-11-28T13:24:15.953Z,13.37
2022-11-28T13:26:49.162Z,13.53
2022-11-28T13:29:36.278Z,13.63
2022-11-28T13:32:26.131Z,12.90
2022-11-28T13:34:49.384Z,12.43
2022-11-28T13:40:30.569Z,13.50
2022-11-28T13:43:14.867Z,13.70
2022-11-28T13:45:41.389Z,13.50
2022-11-28T13:48:57.522Z,13.90
2022-11-28T13:51:19.128Z,13.17
2022-11-28T13:53:43.927Z,15.20
2022-11-28T13:56:05.312Z,16.97
2022-11-28T13:58:32.083Z,14.80
2022-11-28T14:01:17.772Z,14.03
2022-11-28T14:03:52.396Z,13.93
2022-11-28T14:06:19.360Z,14.20
2022-11-28T14:08:43.666Z,13.60
2022-11-28T14:11:14.211Z,13.97
2022-11-28T14:13:59.997Z,14.13
2022-11-28T14:16:33.951Z,14.23
2022-11-28T14:19:17.600Z,13.37
2022-11-28T14:22:18.038Z,13.23
2022-11-28T14:24:51.811Z,14.20
2022-11-28T14:27:21.906Z,13.40
2022-11-28T14:29:48.625Z,14.13
2022-11-28T14:32:31.044Z,14.07
2022-11-28T14:34:52.911Z,14.80
2022-11-28T14:37:52.738Z,14.30
2022-11-28T14:40:53.302Z,14.10
2022-11-28T14:43:23.814Z,15.33
2022-11-28T14:45:45.333Z,14.93
2022-11-28T14:48:28.948Z,14.17
2022-11-28T14:50:59.061Z,15.03
2022-11-28T14:53:44.630Z,15.00
2022-11-28T14:56:15.053Z,14.60
2022-11-28T14:58:36.543Z,15.13
2022-11-28T15:01:00.048Z,15.20
2022-11-28T15:03:57.524Z,14.57
2022-11-28T15:06:24.029Z,14.90
2022-11-28T15:08:48.300Z,15.00
2022-11-28T15:11:28.490Z,14.83
2022-11-28T15:14:10.668Z,14.90
2022-11-28T15:16:33.981Z,15.33
2022-11-28T15:19:00.510Z,15.93
2022-11-28T15:21:24.816Z,14.90
2022-11-28T15:23:47.008Z,16.00
2022-11-28T15:26:19.724Z,16.30
2022-11-28T15:28:41.969Z,15.07
2022-11-28T15:31:05.710Z,16.20
2022-11-28T15:33:28.540Z,15.87
2022-11-28T15:35:56.039Z,15.97
2022-11-28T15:38:17.718Z,15.87
2022-11-28T15:40:39.211Z,15.37
2022-11-28T15:43:06.614Z,20.87
2022-11-28T15:45:35.380Z,15.93
2022-11-28T15:47:57.650Z,15.83
2022-11-28T15:50:25.569Z,17.17
2022-11-28T15:53:02.386Z,15.10
2022-11-28T15:55:25.907Z,16.27
2022-11-28T15:57:47.409Z,15.70
2022-11-28T16:00:16.634Z,14.83
2022-11-28T16:02:39.732Z,15.27
2022-11-28T16:05:11.039Z,14.43
2022-11-28T16:07:39.001Z,16.17
2022-11-28T16:10:06.555Z,15.60
2022-11-28T16:12:28.771Z,16.07
2022-11-28T16:14:53.236Z,15.03
2022-11-28T16:17:26.066Z,16.00
2022-11-28T16:19:51.487Z,15.80
2022-11-28T16:22:19.597Z,17.33
2022-11-28T16:24:52.190Z,14.90
2022-11-28T16:27:36.710Z,15.57
2022-11-28T16:29:58.772Z,15.20
2022-11-28T16:32:26.083Z,15.73
2022-11-28T16:34:52.173Z,15.50
2022-11-28T16:37:14.460Z,15.47
2022-11-28T16:39:36.714Z,15.90
2022-11-28T16:42:12.613Z,14.87
2022-11-28T16:44:34.345Z,16.27
2022-11-28T16:46:57.927Z,16.40
2022-11-28T16:49:43.820Z,16.10
2022-11-28T16:52:27.321Z,16.77
2022-11-28T16:54:50.216Z,15.50
2022-11-28T16:57:14.859Z,17.13
2022-11-28T16:59:36.550Z,16.53
2022-11-28T17:01:58.070Z,16.40
2022-11-28T17:04:27.990Z,16.37
2022-11-28T17:06:50.300Z,16.90
2022-11-28T17:09:13.586Z,16.73
2022-11-28T17:11:37.801Z,17.83
2022-11-28T17:14:02.430Z,19.40
2022-11-28T17:16:26.254Z,17.77
2022-11-28T17:18:48.460Z,18.30
2022-11-28T17:21:12.125Z,17.63
2022-11-28T17:23:33.672Z,17.33
2022-11-28T17:25:55.138Z,16.63
2022-11-28T17:28:21.570Z,18.30
2022-11-28T17:30:44.716Z,16.73
2022-11-28T17:33:06.201Z,17.37
2022-11-28T17:35:34.378Z,15.83
2022-11-28T17:37:55.831Z,17.03
2022-11-28T17:40:36.737Z,16.03
2022-11-28T17:42:58.833Z,15.90
2022-11-28T17:45:22.055Z,16.30
2022-11-28T17:47:43.514Z,16.17
2022-11-28T17:50:05.651Z,16.00
2022-11-28T17:52:30.272Z,16.17
2022-11-28T17:54:51.946Z,15.43
2022-11-28T17:57:13.411Z,16.13
2022-11-28T17:59:35.987Z,15.93
2022-11-28T18:01:57.717Z,16.13
2022-11-28T18:04:19.516Z,15.17
2022-11-28T18:06:45.347Z,16.30
2022-11-28T18:09:11.706Z,15.13
2022-11-28T18:11:35.736Z,15.23
2022-11-28T18:13:58.163Z,15.10
2022-11-28T18:16:22.889Z,16.00
2022-11-28T18:18:44.679Z,16.10
2022-11-28T18:21:08.643Z,15.70
2022-11-28T18:23:30.115Z,16.43
2022-11-28T18:25:51.589Z,16.07
2022-11-28T18:28:18.831Z,17.20
2022-11-28T18:30:42.581Z,17.10
2022-11-28T18:33:04.121Z,16.17
2022-11-28T18:35:25.535Z,15.93
2022-11-28T18:37:47.013Z,15.93
2022-11-28T18:40:09.460Z,16.43
2022-11-28T18:42:31.393Z,15.83
2022-11-28T18:44:52.850Z,16.27
2022-11-28T18:47:14.288Z,16.03
2022-11-28T18:49:35.715Z,16.03
2022-11-28T18:51:57.213Z,16.97
2022-11-28T18:54:21.430Z,15.87
2022-11-28T18:56:43.197Z,16.60
2022-11-28T18:59:04.756Z,16.03
2022-11-28T19:01:30.256Z,16.60
2022-11-28T19:03:55.380Z,16.70
2022-11-28T19:06:16.860Z,15.47
2022-11-28T19:08:39.258Z,15.77
2022-11-28T19:11:09.010Z,15.07
2022-11-28T19:13:30.487Z,15.17
2022-11-28T19:15:51.909Z,15.43
2022-11-28T19:18:13.698Z,15.00
2022-11-28T19:20:35.322Z,15.13
2022-11-28T19:22:56.769Z,15.23
2022-11-28T19:25:18.190Z,15.30
2022-11-28T19:27:39.640Z,15.43
2022-11-28T19:30:01.061Z,15.27
2022-11-28T19:32:22.573Z,15.47
2022-11-28T19:34:44.153Z,15.10
2022-11-28T19:37:05.627Z,14.80
2022-11-28T19:39:27.081Z,14.93
2022-11-28T19:41:49.501Z,15.73
2022-11-28T19:44:12.122Z,14.27
2022-11-28T19:46:35.885Z,16.30
2022-11-28T19:48:57.699Z,15.07
2022-11-28T19:51:20.146Z,15.33
2022-11-28T19:53:42.680Z,14.60
2022-11-28T19:56:06.282Z,14.80
2022-11-28T19:58:29.182Z,14.30
2022-11-28T20:00:50.659Z,15.23
2022-11-28T20:03:12.129Z,14.70
2022-11-28T20:05:35.207Z,13.70
2022-11-28T20:07:58.582Z,14.80
2022-11-28T20:10:20.378Z,14.57
2022-11-28T20:12:42.231Z,14.37
2022-11-28T20:15:04.270Z,13.50
2022-11-28T20:17:25.710Z,13.63
2022-11-28T20:19:48.047Z,13.87
2022-11-28T20:22:09.524Z,13.77
2022-11-28T20:24:31.160Z,14.03
2022-11-28T20:26:52.663Z,13.53
2022-11-28T20:29:16.530Z,14.07
2022-11-28T20:31:45.554Z,13.70
2022-11-28T20:34:07.618Z,13.90
2022-11-28T20:36:30.569Z,12.80
2022-11-28T20:38:53.363Z,13.77
2022-11-28T20:41:16.063Z,13.50
2022-11-28T20:43:39.165Z,13.97
2022-11-28T20:46:02.797Z,13.23
2022-11-28T20:48:24.284Z,13.57
2022-11-28T20:50:45.740Z,13.47
2022-11-28T20:53:07.239Z,12.33
2022-11-28T20:55:28.678Z,12.50
2022-11-28T20:57:50.111Z,13.17
2022-11-28T21:00:12.204Z,12.07
2022-11-28T21:02:33.721Z,11.83
2022-11-28T21:04:55.188Z,12.67
2022-11-28T21:07:16.728Z,12.50
2022-11-28T21:09:38.177Z,13.47
2022-11-28T21:11:59.764Z,13.23
2022-11-28T21:14:21.302Z,13.80
2022-11-28T21:16:43.685Z,12.97
2022-11-28T21:19:08.928Z,13.13
2022-11-28T21:21:32.685Z,13.37
2022-11-28T21:24:09.619Z,12.13
2022-11-28T21:26:37.619Z,12.83
2022-11-28T21:29:06.183Z,12.97
2022-11-28T21:31:30.416Z,13.20
2022-11-28T21:33:54.404Z,12.13
2022-11-28T21:36:16.355Z,12.83
2022-11-28T21:38:37.800Z,12.87
2022-11-28T21:41:00.030Z,12.23
2022-11-28T21:43:22.497Z,13.77
2022-11-28T21:45:43.981Z,13.70
2022-11-28T21:48:05.608Z,12.13
2022-11-28T21:50:27.027Z,12.23
2022-11-28T21:52:48.474Z,12.90
2022-11-28T21:55:09.909Z,11.73
2022-11-28T21:57:31.456Z,11.97
2022-11-28T21:59:52.901Z,12.47
2022-11-28T22:02:14.716Z,11.07
2022-11-28T22:04:36.244Z,11.23
2022-11-28T22:06:57.752Z,11.27
2022-11-28T22:09:19.196Z,12.10
2022-11-28T22:11:40.669Z,11.40
2022-11-28T22:14:02.140Z,11.03
2022-11-28T22:16:25.824Z,10.70
2022-11-28T22:18:48.432Z,11.17
2022-11-28T22:21:49.449Z,10.23
2022-11-28T22:23:51.922Z,11.43
2022-11-28T22:26:13.421Z,10.27
2022-11-28T22:28:37.613Z,10.23
2022-11-28T22:30:59.853Z,9.90
2022-11-28T22:33:21.516Z,10.23
2022-11-28T22:35:43.032Z,10.17
2022-11-28T22:38:04.505Z,9.57
2022-11-28T22:40:25.934Z,9.53
2022-11-28T22:42:47.371Z,10.00
2022-11-28T22:45:09.699Z,9.63
2022-11-28T22:47:32.461Z,8.57
2022-11-28T22:49:53.880Z,8.83
2022-11-28T22:52:15.294Z,9.30
2022-11-28T22:54:36.880Z,8.90
2022-11-28T22:56:58.306Z,9.03
2022-11-28T22:59:19.809Z,7.83
2022-11-28T23:01:41.908Z,7.93
2022-11-28T23:04:03.708Z,7.63
2022-11-28T23:06:28.387Z,8.17
2022-11-28T23:08:50.586Z,8.93
2022-11-28T23:11:15.088Z,7.97
2022-11-28T23:13:37.685Z,7.77
2022-11-28T23:16:16.326Z,7.43
2022-11-28T23:18:37.845Z,7.63
2022-11-28T23:20:59.283Z,6.77
2022-11-28T23:23:20.726Z,7.23
2022-11-28T23:25:42.157Z,7.50
2022-11-28T23:28:03.708Z,7.37
2022-11-28T23:30:25.381Z,7.43
2022-11-28T23:32:46.864Z,6.90
2022-11-28T23:35:08.675Z,7.63
2022-11-28T23:37:30.128Z,7.90
2022-11-28T23:39:51.549Z,7.77
2022-11-28T23:42:12.975Z,7.37
2022-11-28T23:44:34.485Z,7.83
2022-11-28T23:46:55.943Z,7.20
2022-11-28T23:49:17.410Z,6.57
2022-11-28T23:51:40.568Z,6.60
2022-11-28T23:54:02.188Z,7.27
2022-11-28T23:56:26.461Z,7.13
2022-11-28T23:58:48.710Z,7.40
